sensor_id;sensor_type;location;lat;lon;timestamp;temperature;humidity
74968;SHT30;63523;51.880;12.630;2024-03-06T00:01:31;4.42;73.51
74968;SHT30;63523;51.880;12.630;2024-03-06T00:03:56;4.31;73.62
74968;SHT30;63523;51.880;12.630;2024-03-06T00:06:21;4.17;73.89
74968;SHT30;63523;51.880;12.630;2024-03-06T00:08:46;4.07;74.17
74968;SHT30;63523;51.880;12.630;2024-03-06T00:11:11;3.98;74.79
74968;SHT30;63523;51.880;12.630;2024-03-06T00:13:37;3.89;74.88
74968;SHT30;63523;51.880;12.630;2024-03-06T00:16:02;3.86;74.95
74968;SHT30;63523;51.880;12.630;2024-03-06T00:18:28;3.76;74.96
74968;SHT30;63523;51.880;12.630;2024-03-06T00:20:53;3.76;75.16
74968;SHT30;63523;51.880;12.630;2024-03-06T00:23:18;3.72;75.31
74968;SHT30;63523;51.880;12.630;2024-03-06T00:25:44;3.70;75.30
74968;SHT30;63523;51.880;12.630;2024-03-06T00:28:09;3.68;75.15
74968;SHT30;63523;51.880;12.630;2024-03-06T00:30:34;3.66;74.96
74968;SHT30;63523;51.880;12.630;2024-03-06T00:32:59;3.58;75.31
74968;SHT30;63523;51.880;12.630;2024-03-06T00:35:25;3.52;75.50
74968;SHT30;63523;51.880;12.630;2024-03-06T00:37:51;3.46;75.66
74968;SHT30;63523;51.880;12.630;2024-03-06T00:40:17;3.41;75.76
74968;SHT30;63523;51.880;12.630;2024-03-06T00:42:42;3.35;76.01
74968;SHT30;63523;51.880;12.630;2024-03-06T00:45:07;3.28;76.14
74968;SHT30;63523;51.880;12.630;2024-03-06T00:47:33;3.24;76.21
74968;SHT30;63523;51.880;12.630;2024-03-06T00:49:59;3.24;76.49
74968;SHT30;63523;51.880;12.630;2024-03-06T00:52:25;3.23;76.36
74968;SHT30;63523;51.880;12.630;2024-03-06T00:54:50;3.25;76.39
74968;SHT30;63523;51.880;12.630;2024-03-06T00:57:15;3.17;76.06
74968;SHT30;63523;51.880;12.630;2024-03-06T00:59:41;3.10;76.61
74968;SHT30;63523;51.880;12.630;2024-03-06T01:02:06;3.06;76.45
74968;SHT30;63523;51.880;12.630;2024-03-06T01:04:31;3.06;77.01
74968;SHT30;63523;51.880;12.630;2024-03-06T01:06:56;3.06;76.99
74968;SHT30;63523;51.880;12.630;2024-03-06T01:09:23;3.08;76.98
74968;SHT30;63523;51.880;12.630;2024-03-06T01:11:48;3.07;77.01
74968;SHT30;63523;51.880;12.630;2024-03-06T01:14:14;3.03;76.73
74968;SHT30;63523;51.880;12.630;2024-03-06T01:16:39;2.96;77.33
74968;SHT30;63523;51.880;12.630;2024-03-06T01:19:04;2.99;77.39
74968;SHT30;63523;51.880;12.630;2024-03-06T01:21:30;3.03;77.10
74968;SHT30;63523;51.880;12.630;2024-03-06T01:23:55;3.10;76.96
74968;SHT30;63523;51.880;12.630;2024-03-06T01:26:20;3.00;76.95
74968;SHT30;63523;51.880;12.630;2024-03-06T01:28:46;2.93;77.12
74968;SHT30;63523;51.880;12.630;2024-03-06T01:31:11;2.86;77.06
74968;SHT30;63523;51.880;12.630;2024-03-06T01:33:36;2.82;77.68
74968;SHT30;63523;51.880;12.630;2024-03-06T01:36:01;2.72;77.63
74968;SHT30;63523;51.880;12.630;2024-03-06T01:38:27;2.59;77.80
74968;SHT30;63523;51.880;12.630;2024-03-06T01:40:52;2.51;78.33
74968;SHT30;63523;51.880;12.630;2024-03-06T01:43:19;2.45;78.46
74968;SHT30;63523;51.880;12.630;2024-03-06T01:45:45;2.44;78.92
74968;SHT30;63523;51.880;12.630;2024-03-06T01:48:12;2.41;79.01
74968;SHT30;63523;51.880;12.630;2024-03-06T01:50:37;2.38;79.14
74968;SHT30;63523;51.880;12.630;2024-03-06T01:53:02;2.37;79.09
74968;SHT30;63523;51.880;12.630;2024-03-06T01:55:28;2.31;79.38
74968;SHT30;63523;51.880;12.630;2024-03-06T01:57:53;2.25;79.44
74968;SHT30;63523;51.880;12.630;2024-03-06T02:00:19;2.21;79.48
74968;SHT30;63523;51.880;12.630;2024-03-06T02:02:46;2.16;79.80
74968;SHT30;63523;51.880;12.630;2024-03-06T02:05:12;2.09;79.90
74968;SHT30;63523;51.880;12.630;2024-03-06T02:07:38;2.00;80.04
74968;SHT30;63523;51.880;12.630;2024-03-06T02:10:05;1.96;80.36
74968;SHT30;63523;51.880;12.630;2024-03-06T02:12:32;1.97;80.83
74968;SHT30;63523;51.880;12.630;2024-03-06T02:14:58;2.07;80.56
74968;SHT30;63523;51.880;12.630;2024-03-06T02:17:23;2.11;80.32
74968;SHT30;63523;51.880;12.630;2024-03-06T02:19:50;2.31;79.87
74968;SHT30;63523;51.880;12.630;2024-03-06T02:22:16;2.38;79.33
74968;SHT30;63523;51.880;12.630;2024-03-06T02:24:44;2.38;79.08
74968;SHT30;63523;51.880;12.630;2024-03-06T02:27:10;2.48;78.81
74968;SHT30;63523;51.880;12.630;2024-03-06T02:29:35;2.49;78.14
74968;SHT30;63523;51.880;12.630;2024-03-06T02:32:00;2.40;78.27
74968;SHT30;63523;51.880;12.630;2024-03-06T02:34:28;2.41;78.32
74968;SHT30;63523;51.880;12.630;2024-03-06T02:36:54;2.31;78.27
74968;SHT30;63523;51.880;12.630;2024-03-06T02:39:19;2.24;78.62
74968;SHT30;63523;51.880;12.630;2024-03-06T02:41:44;2.13;78.68
74968;SHT30;63523;51.880;12.630;2024-03-06T02:44:09;2.06;79.35
74968;SHT30;63523;51.880;12.630;2024-03-06T02:46:35;2.03;79.77
74968;SHT30;63523;51.880;12.630;2024-03-06T02:49:00;2.04;79.89
74968;SHT30;63523;51.880;12.630;2024-03-06T02:51:26;2.02;79.77
74968;SHT30;63523;51.880;12.630;2024-03-06T02:53:51;1.99;79.91
74968;SHT30;63523;51.880;12.630;2024-03-06T02:56:18;1.99;79.79
74968;SHT30;63523;51.880;12.630;2024-03-06T02:58:44;2.00;79.53
74968;SHT30;63523;51.880;12.630;2024-03-06T03:01:10;1.96;79.87
74968;SHT30;63523;51.880;12.630;2024-03-06T03:03:35;1.86;80.11
74968;SHT30;63523;51.880;12.630;2024-03-06T03:06:01;1.85;80.64
74968;SHT30;63523;51.880;12.630;2024-03-06T03:08:27;1.82;80.62
74968;SHT30;63523;51.880;12.630;2024-03-06T03:10:52;1.82;80.72
74968;SHT30;63523;51.880;12.630;2024-03-06T03:13:17;1.85;80.87
74968;SHT30;63523;51.880;12.630;2024-03-06T03:15:42;1.83;80.94
74968;SHT30;63523;51.880;12.630;2024-03-06T03:18:08;1.83;81.03
74968;SHT30;63523;51.880;12.630;2024-03-06T03:20:33;1.83;80.99
74968;SHT30;63523;51.880;12.630;2024-03-06T03:23:00;1.85;80.71
74968;SHT30;63523;51.880;12.630;2024-03-06T03:25:26;1.78;80.40
74968;SHT30;63523;51.880;12.630;2024-03-06T03:27:51;1.78;80.38
74968;SHT30;63523;51.880;12.630;2024-03-06T03:30:17;1.73;80.17
74968;SHT30;63523;51.880;12.630;2024-03-06T03:32:45;1.65;80.42
74968;SHT30;63523;51.880;12.630;2024-03-06T03:35:10;1.58;80.73
74968;SHT30;63523;51.880;12.630;2024-03-06T03:37:36;1.55;80.99
74968;SHT30;63523;51.880;12.630;2024-03-06T03:40:01;1.50;80.92
74968;SHT30;63523;51.880;12.630;2024-03-06T03:42:27;1.37;80.31
74968;SHT30;63523;51.880;12.630;2024-03-06T03:44:53;1.22;79.99
74968;SHT30;63523;51.880;12.630;2024-03-06T03:47:18;1.08;80.13
74968;SHT30;63523;51.880;12.630;2024-03-06T03:49:43;0.96;80.47
74968;SHT30;63523;51.880;12.630;2024-03-06T03:52:08;0.92;81.50
74968;SHT30;63523;51.880;12.630;2024-03-06T03:54:34;0.93;82.01
74968;SHT30;63523;51.880;12.630;2024-03-06T03:57:00;0.99;82.27
74968;SHT30;63523;51.880;12.630;2024-03-06T03:59:25;1.04;82.51
74968;SHT30;63523;51.880;12.630;2024-03-06T04:01:51;1.06;82.59
74968;SHT30;63523;51.880;12.630;2024-03-06T04:04:16;1.10;82.78
74968;SHT30;63523;51.880;12.630;2024-03-06T04:06:41;1.08;82.51
74968;SHT30;63523;51.880;12.630;2024-03-06T04:09:06;1.03;82.29
74968;SHT30;63523;51.880;12.630;2024-03-06T04:11:35;1.04;82.34
74968;SHT30;63523;51.880;12.630;2024-03-06T04:14:02;1.12;82.39
74968;SHT30;63523;51.880;12.630;2024-03-06T04:16:27;1.17;82.44
74968;SHT30;63523;51.880;12.630;2024-03-06T04:18:52;1.17;81.99
74968;SHT30;63523;51.880;12.630;2024-03-06T04:21:17;1.13;82.06
74968;SHT30;63523;51.880;12.630;2024-03-06T04:23:43;1.16;82.71
74968;SHT30;63523;51.880;12.630;2024-03-06T04:26:09;1.27;82.83
74968;SHT30;63523;51.880;12.630;2024-03-06T04:28:34;1.45;82.20
74968;SHT30;63523;51.880;12.630;2024-03-06T04:30:59;1.66;81.40
74968;SHT30;63523;51.880;12.630;2024-03-06T04:33:24;1.65;80.62
74968;SHT30;63523;51.880;12.630;2024-03-06T04:35:50;1.63;80.87
74968;SHT30;63523;51.880;12.630;2024-03-06T04:38:15;1.62;80.70
74968;SHT30;63523;51.880;12.630;2024-03-06T04:40:40;1.63;80.98
74968;SHT30;63523;51.880;12.630;2024-03-06T04:43:06;1.63;80.64
74968;SHT30;63523;51.880;12.630;2024-03-06T04:45:32;1.62;80.62
74968;SHT30;63523;51.880;12.630;2024-03-06T04:47:57;1.65;80.73
74968;SHT30;63523;51.880;12.630;2024-03-06T04:50:23;1.61;80.75
74968;SHT30;63523;51.880;12.630;2024-03-06T04:52:49;1.59;80.68
74968;SHT30;63523;51.880;12.630;2024-03-06T04:55:14;1.61;80.35
74968;SHT30;63523;51.880;12.630;2024-03-06T04:57:42;1.61;80.59
74968;SHT30;63523;51.880;12.630;2024-03-06T05:00:09;1.55;80.44
74968;SHT30;63523;51.880;12.630;2024-03-06T05:02:35;1.52;80.53
74968;SHT30;63523;51.880;12.630;2024-03-06T05:05:02;1.51;81.13
74968;SHT30;63523;51.880;12.630;2024-03-06T05:07:31;1.50;81.03
74968;SHT30;63523;51.880;12.630;2024-03-06T05:09:58;1.44;80.17
74968;SHT30;63523;51.880;12.630;2024-03-06T05:12:24;1.33;80.09
74968;SHT30;63523;51.880;12.630;2024-03-06T05:14:50;1.19;80.20
74968;SHT30;63523;51.880;12.630;2024-03-06T05:17:15;0.99;79.94
74968;SHT30;63523;51.880;12.630;2024-03-06T05:19:40;0.83;80.12
74968;SHT30;63523;51.880;12.630;2024-03-06T05:22:06;0.70;80.24
74968;SHT30;63523;51.880;12.630;2024-03-06T05:24:31;0.57;80.54
74968;SHT30;63523;51.880;12.630;2024-03-06T05:26:56;0.47;81.02
74968;SHT30;63523;51.880;12.630;2024-03-06T05:29:21;0.38;81.44
74968;SHT30;63523;51.880;12.630;2024-03-06T05:31:47;0.31;81.91
74968;SHT30;63523;51.880;12.630;2024-03-06T05:34:12;0.24;82.29
74968;SHT30;63523;51.880;12.630;2024-03-06T05:36:37;0.40;82.89
74968;SHT30;63523;51.880;12.630;2024-03-06T05:39:02;0.50;82.84
74968;SHT30;63523;51.880;12.630;2024-03-06T05:41:32;0.50;82.44
74968;SHT30;63523;51.880;12.630;2024-03-06T05:43:58;0.57;82.40
74968;SHT30;63523;51.880;12.630;2024-03-06T05:46:23;0.62;82.53
74968;SHT30;63523;51.880;12.630;2024-03-06T05:48:48;0.70;82.44
74968;SHT30;63523;51.880;12.630;2024-03-06T05:51:15;0.69;82.77
74968;SHT30;63523;51.880;12.630;2024-03-06T05:53:40;0.76;82.74
74968;SHT30;63523;51.880;12.630;2024-03-06T05:56:07;0.86;83.05
74968;SHT30;63523;51.880;12.630;2024-03-06T05:58:33;0.93;82.73
74968;SHT30;63523;51.880;12.630;2024-03-06T06:00:59;0.99;82.44
74968;SHT30;63523;51.880;12.630;2024-03-06T06:03:25;0.99;81.71
74968;SHT30;63523;51.880;12.630;2024-03-06T06:05:50;0.90;81.61
74968;SHT30;63523;51.880;12.630;2024-03-06T06:08:15;0.99;82.26
74968;SHT30;63523;51.880;12.630;2024-03-06T06:10:41;0.93;81.45
74968;SHT30;63523;51.880;12.630;2024-03-06T06:13:06;0.96;81.26
74968;SHT30;63523;51.880;12.630;2024-03-06T06:15:31;1.01;81.70
74968;SHT30;63523;51.880;12.630;2024-03-06T06:17:56;1.10;82.37
74968;SHT30;63523;51.880;12.630;2024-03-06T06:20:22;1.31;82.58
74968;SHT30;63523;51.880;12.630;2024-03-06T06:22:47;1.61;82.26
74968;SHT30;63523;51.880;12.630;2024-03-06T06:25:13;1.89;81.87
74968;SHT30;63523;51.880;12.630;2024-03-06T06:27:38;2.16;80.42
74968;SHT30;63523;51.880;12.630;2024-03-06T06:30:04;2.31;79.93
74968;SHT30;63523;51.880;12.630;2024-03-06T06:32:30;2.45;80.09
74968;SHT30;63523;51.880;12.630;2024-03-06T06:34:55;2.53;78.86
74968;SHT30;63523;51.880;12.630;2024-03-06T06:37:21;2.55;78.46
74968;SHT30;63523;51.880;12.630;2024-03-06T06:39:46;2.48;78.44
74968;SHT30;63523;51.880;12.630;2024-03-06T06:42:12;2.51;78.41
74968;SHT30;63523;51.880;12.630;2024-03-06T06:44:37;2.59;78.78
74968;SHT30;63523;51.880;12.630;2024-03-06T06:47:02;2.62;78.56
74968;SHT30;63523;51.880;12.630;2024-03-06T06:49:28;2.78;78.84
74968;SHT30;63523;51.880;12.630;2024-03-06T06:51:53;2.89;78.05
74968;SHT30;63523;51.880;12.630;2024-03-06T06:54:18;2.95;77.88
74968;SHT30;63523;51.880;12.630;2024-03-06T06:56:44;3.10;78.00
74968;SHT30;63523;51.880;12.630;2024-03-06T06:59:09;3.30;77.57
74968;SHT30;63523;51.880;12.630;2024-03-06T07:01:34;3.54;77.66
74968;SHT30;63523;51.880;12.630;2024-03-06T07:04:00;3.79;76.66
74968;SHT30;63523;51.880;12.630;2024-03-06T07:06:26;3.91;76.20
74968;SHT30;63523;51.880;12.630;2024-03-06T07:08:51;3.98;76.13
74968;SHT30;63523;51.880;12.630;2024-03-06T07:11:17;4.08;75.70
74968;SHT30;63523;51.880;12.630;2024-03-06T07:13:43;4.24;75.74
74968;SHT30;63523;51.880;12.630;2024-03-06T07:16:08;4.38;75.88
74968;SHT30;63523;51.880;12.630;2024-03-06T07:18:34;4.42;75.41
74968;SHT30;63523;51.880;12.630;2024-03-06T07:21:00;4.61;74.87
74968;SHT30;63523;51.880;12.630;2024-03-06T07:23:25;4.59;74.23
74968;SHT30;63523;51.880;12.630;2024-03-06T07:25:50;4.68;74.02
74968;SHT30;63523;51.880;12.630;2024-03-06T07:28:15;4.83;74.39
74968;SHT30;63523;51.880;12.630;2024-03-06T07:30:41;4.98;74.69
74968;SHT30;63523;51.880;12.630;2024-03-06T07:33:06;5.11;74.23
74968;SHT30;63523;51.880;12.630;2024-03-06T07:35:32;5.24;73.69
74968;SHT30;63523;51.880;12.630;2024-03-06T07:37:57;5.34;73.25
74968;SHT30;63523;51.880;12.630;2024-03-06T07:40:23;5.30;74.05
74968;SHT30;63523;51.880;12.630;2024-03-06T07:42:48;5.35;74.20
74968;SHT30;63523;51.880;12.630;2024-03-06T07:45:13;5.41;73.29
74968;SHT30;63523;51.880;12.630;2024-03-06T07:47:39;5.43;73.61
74968;SHT30;63523;51.880;12.630;2024-03-06T07:50:06;5.43;73.62
74968;SHT30;63523;51.880;12.630;2024-03-06T07:52:32;5.52;73.33
74968;SHT30;63523;51.880;12.630;2024-03-06T07:54:57;5.56;73.65
74968;SHT30;63523;51.880;12.630;2024-03-06T07:57:23;5.59;73.37
74968;SHT30;63523;51.880;12.630;2024-03-06T07:59:48;5.62;73.49
74968;SHT30;63523;51.880;12.630;2024-03-06T08:02:14;5.59;72.94
74968;SHT30;63523;51.880;12.630;2024-03-06T08:04:39;5.55;73.07
74968;SHT30;63523;51.880;12.630;2024-03-06T08:07:05;5.58;73.66
74968;SHT30;63523;51.880;12.630;2024-03-06T08:09:30;5.63;73.94
74968;SHT30;63523;51.880;12.630;2024-03-06T08:11:56;5.69;73.05
74968;SHT30;63523;51.880;12.630;2024-03-06T08:14:21;5.73;73.20
74968;SHT30;63523;51.880;12.630;2024-03-06T08:16:47;5.76;73.24
74968;SHT30;63523;51.880;12.630;2024-03-06T08:19:12;5.87;73.09
74968;SHT30;63523;51.880;12.630;2024-03-06T08:21:37;6.06;72.71
74968;SHT30;63523;51.880;12.630;2024-03-06T08:24:03;6.22;72.11
74968;SHT30;63523;51.880;12.630;2024-03-06T08:26:28;6.35;72.19
74968;SHT30;63523;51.880;12.630;2024-03-06T08:28:53;6.45;71.91
74968;SHT30;63523;51.880;12.630;2024-03-06T08:31:19;6.59;71.42
74968;SHT30;63523;51.880;12.630;2024-03-06T08:33:46;6.69;70.60
74968;SHT30;63523;51.880;12.630;2024-03-06T08:36:11;6.76;69.61
74968;SHT30;63523;51.880;12.630;2024-03-06T08:38:38;6.76;70.30
74968;SHT30;63523;51.880;12.630;2024-03-06T08:41:05;6.77;71.41
74968;SHT30;63523;51.880;12.630;2024-03-06T08:43:31;6.84;70.15
74968;SHT30;63523;51.880;12.630;2024-03-06T08:45:56;6.91;70.55
74968;SHT30;63523;51.880;12.630;2024-03-06T08:48:22;6.96;69.99
74968;SHT30;63523;51.880;12.630;2024-03-06T08:50:47;7.03;69.77
74968;SHT30;63523;51.880;12.630;2024-03-06T08:53:12;7.09;69.65
74968;SHT30;63523;51.880;12.630;2024-03-06T08:55:39;7.12;68.48
74968;SHT30;63523;51.880;12.630;2024-03-06T08:58:04;7.19;69.01
74968;SHT30;63523;51.880;12.630;2024-03-06T09:00:29;7.16;68.63
74968;SHT30;63523;51.880;12.630;2024-03-06T09:02:54;7.35;67.11
74968;SHT30;63523;51.880;12.630;2024-03-06T09:05:20;7.43;67.21
74968;SHT30;63523;51.880;12.630;2024-03-06T09:07:47;7.42;66.21
74968;SHT30;63523;51.880;12.630;2024-03-06T09:10:12;7.55;67.35
74968;SHT30;63523;51.880;12.630;2024-03-06T09:12:38;7.59;66.55
74968;SHT30;63523;51.880;12.630;2024-03-06T09:15:04;7.74;67.06
74968;SHT30;63523;51.880;12.630;2024-03-06T09:17:30;7.91;63.99
74968;SHT30;63523;51.880;12.630;2024-03-06T09:19:55;8.04;63.28
74968;SHT30;63523;51.880;12.630;2024-03-06T09:22:21;8.15;62.60
74968;SHT30;63523;51.880;12.630;2024-03-06T09:24:46;8.20;62.68
74968;SHT30;63523;51.880;12.630;2024-03-06T09:27:13;8.22;62.72
74968;SHT30;63523;51.880;12.630;2024-03-06T09:29:39;8.29;62.31
74968;SHT30;63523;51.880;12.630;2024-03-06T09:32:04;8.41;60.25
74968;SHT30;63523;51.880;12.630;2024-03-06T09:34:30;8.45;61.32
74968;SHT30;63523;51.880;12.630;2024-03-06T09:36:55;8.52;60.84
74968;SHT30;63523;51.880;12.630;2024-03-06T09:39:20;8.63;61.56
74968;SHT30;63523;51.880;12.630;2024-03-06T09:41:48;8.74;60.95
74968;SHT30;63523;51.880;12.630;2024-03-06T09:44:14;8.80;57.82
74968;SHT30;63523;51.880;12.630;2024-03-06T09:46:44;8.81;56.84
74968;SHT30;63523;51.880;12.630;2024-03-06T09:49:11;8.87;58.36
74968;SHT30;63523;51.880;12.630;2024-03-06T09:51:38;8.84;57.99
74968;SHT30;63523;51.880;12.630;2024-03-06T09:54:07;8.79;58.40
74968;SHT30;63523;51.880;12.630;2024-03-06T09:56:34;8.73;58.04
74968;SHT30;63523;51.880;12.630;2024-03-06T09:59:00;8.79;56.40
74968;SHT30;63523;51.880;12.630;2024-03-06T10:01:27;8.92;56.17
74968;SHT30;63523;51.880;12.630;2024-03-06T10:03:53;9.14;56.96
74968;SHT30;63523;51.880;12.630;2024-03-06T10:06:18;9.32;56.68
74968;SHT30;63523;51.880;12.630;2024-03-06T10:08:44;9.29;56.37
74968;SHT30;63523;51.880;12.630;2024-03-06T10:11:11;9.21;56.83
74968;SHT30;63523;51.880;12.630;2024-03-06T10:13:36;9.10;56.78
74968;SHT30;63523;51.880;12.630;2024-03-06T10:16:04;9.12;55.04
74968;SHT30;63523;51.880;12.630;2024-03-06T10:18:33;9.03;56.08
74968;SHT30;63523;51.880;12.630;2024-03-06T10:20:58;9.07;57.33
74968;SHT30;63523;51.880;12.630;2024-03-06T10:23:24;9.21;54.84
74968;SHT30;63523;51.880;12.630;2024-03-06T10:25:50;9.24;55.67
74968;SHT30;63523;51.880;12.630;2024-03-06T10:28:18;9.32;55.12
74968;SHT30;63523;51.880;12.630;2024-03-06T10:30:43;9.39;54.06
74968;SHT30;63523;51.880;12.630;2024-03-06T10:33:10;9.36;54.59
74968;SHT30;63523;51.880;12.630;2024-03-06T10:35:36;9.43;56.73
74968;SHT30;63523;51.880;12.630;2024-03-06T10:38:06;9.61;54.67
74968;SHT30;63523;51.880;12.630;2024-03-06T10:40:33;9.70;54.20
74968;SHT30;63523;51.880;12.630;2024-03-06T10:42:59;9.91;54.81
74968;SHT30;63523;51.880;12.630;2024-03-06T10:45:39;9.90;54.66
74968;SHT30;63523;51.880;12.630;2024-03-06T10:48:06;9.93;52.59
74968;SHT30;63523;51.880;12.630;2024-03-06T10:50:32;9.93;51.51
74968;SHT30;63523;51.880;12.630;2024-03-06T10:52:59;10.02;52.00
74968;SHT30;63523;51.880;12.630;2024-03-06T10:55:25;10.05;52.59
74968;SHT30;63523;51.880;12.630;2024-03-06T10:57:54;10.09;51.99
74968;SHT30;63523;51.880;12.630;2024-03-06T11:00:22;10.07;51.50
74968;SHT30;63523;51.880;12.630;2024-03-06T11:02:47;9.98;51.98
74968;SHT30;63523;51.880;12.630;2024-03-06T11:05:14;9.95;51.65
74968;SHT30;63523;51.880;12.630;2024-03-06T11:07:40;10.12;49.26
74968;SHT30;63523;51.880;12.630;2024-03-06T11:10:06;10.28;50.21
74968;SHT30;63523;51.880;12.630;2024-03-06T11:12:36;10.35;48.31
74968;SHT30;63523;51.880;12.630;2024-03-06T11:15:15;10.49;49.38
74968;SHT30;63523;51.880;12.630;2024-03-06T11:17:43;10.38;49.53
74968;SHT30;63523;51.880;12.630;2024-03-06T11:20:12;10.29;50.85
74968;SHT30;63523;51.880;12.630;2024-03-06T11:28:20;9.99;53.75
74968;SHT30;63523;51.880;12.630;2024-03-06T11:33:20;9.88;53.31
74968;SHT30;63523;51.880;12.630;2024-03-06T11:36:15;9.77;53.39
74968;SHT30;63523;51.880;12.630;2024-03-06T11:38:53;9.74;54.37
74968;SHT30;63523;51.880;12.630;2024-03-06T11:41:28;9.67;50.14
74968;SHT30;63523;51.880;12.630;2024-03-06T11:43:55;9.56;52.19
74968;SHT30;63523;51.880;12.630;2024-03-06T11:46:22;9.44;55.21
74968;SHT30;63523;51.880;12.630;2024-03-06T11:48:54;9.43;53.79
74968;SHT30;63523;51.880;12.630;2024-03-06T11:51:23;9.40;54.81
74968;SHT30;63523;51.880;12.630;2024-03-06T11:53:52;9.42;55.01
74968;SHT30;63523;51.880;12.630;2024-03-06T11:56:19;9.42;52.71
74968;SHT30;63523;51.880;12.630;2024-03-06T11:58:46;9.39;55.27
74968;SHT30;63523;51.880;12.630;2024-03-06T12:01:12;9.31;55.09
74968;SHT30;63523;51.880;12.630;2024-03-06T12:03:37;9.28;54.71
74968;SHT30;63523;51.880;12.630;2024-03-06T12:06:02;9.31;55.41
74968;SHT30;63523;51.880;12.630;2024-03-06T12:08:28;9.43;55.29
74968;SHT30;63523;51.880;12.630;2024-03-06T12:10:53;9.63;53.96
74968;SHT30;63523;51.880;12.630;2024-03-06T12:13:20;9.69;53.00
74968;SHT30;63523;51.880;12.630;2024-03-06T12:15:46;9.66;53.73
74968;SHT30;63523;51.880;12.630;2024-03-06T12:18:11;9.63;52.79
74968;SHT30;63523;51.880;12.630;2024-03-06T12:20:41;9.70;54.14
74968;SHT30;63523;51.880;12.630;2024-03-06T12:23:06;9.78;55.39
74968;SHT30;63523;51.880;12.630;2024-03-06T12:25:32;9.67;53.50
74968;SHT30;63523;51.880;12.630;2024-03-06T12:28:06;9.52;53.47
74968;SHT30;63523;51.880;12.630;2024-03-06T12:30:40;9.49;54.22
74968;SHT30;63523;51.880;12.630;2024-03-06T12:33:07;9.53;55.03
74968;SHT30;63523;51.880;12.630;2024-03-06T12:35:33;9.63;55.10
74968;SHT30;63523;51.880;12.630;2024-03-06T12:37:59;9.73;54.11
74968;SHT30;63523;51.880;12.630;2024-03-06T12:40:24;9.86;53.09
74968;SHT30;63523;51.880;12.630;2024-03-06T12:42:50;9.84;54.00
74968;SHT30;63523;51.880;12.630;2024-03-06T12:45:17;9.88;53.34
74968;SHT30;63523;51.880;12.630;2024-03-06T12:47:43;9.99;52.35
74968;SHT30;63523;51.880;12.630;2024-03-06T12:50:10;9.87;52.66
74968;SHT30;63523;51.880;12.630;2024-03-06T12:52:40;9.83;51.71
74968;SHT30;63523;51.880;12.630;2024-03-06T12:55:06;9.83;52.82
74968;SHT30;63523;51.880;12.630;2024-03-06T12:57:32;9.87;52.35
74968;SHT30;63523;51.880;12.630;2024-03-06T12:59:58;9.83;50.18
74968;SHT30;63523;51.880;12.630;2024-03-06T13:02:23;9.71;51.40
74968;SHT30;63523;51.880;12.630;2024-03-06T13:04:49;9.73;51.02
74968;SHT30;63523;51.880;12.630;2024-03-06T13:07:14;9.70;50.84
74968;SHT30;63523;51.880;12.630;2024-03-06T13:09:39;9.74;50.08
74968;SHT30;63523;51.880;12.630;2024-03-06T13:12:05;9.77;52.19
74968;SHT30;63523;51.880;12.630;2024-03-06T13:14:31;9.86;52.42
74968;SHT30;63523;51.880;12.630;2024-03-06T13:16:57;9.90;53.31
74968;SHT30;63523;51.880;12.630;2024-03-06T13:19:23;9.86;51.32
74968;SHT30;63523;51.880;12.630;2024-03-06T13:21:48;9.81;52.06
74968;SHT30;63523;51.880;12.630;2024-03-06T13:24:13;9.86;51.72
74968;SHT30;63523;51.880;12.630;2024-03-06T13:26:39;9.84;52.27
74968;SHT30;63523;51.880;12.630;2024-03-06T13:29:06;9.91;51.27
74968;SHT30;63523;51.880;12.630;2024-03-06T13:31:31;9.95;51.82
74968;SHT30;63523;51.880;12.630;2024-03-06T13:33:59;9.94;51.46
74968;SHT30;63523;51.880;12.630;2024-03-06T13:36:25;9.87;51.31
74968;SHT30;63523;51.880;12.630;2024-03-06T13:38:50;9.91;52.53
74968;SHT30;63523;51.880;12.630;2024-03-06T13:41:16;9.87;52.54
74968;SHT30;63523;51.880;12.630;2024-03-06T13:43:41;9.95;51.46
74968;SHT30;63523;51.880;12.630;2024-03-06T13:46:06;9.95;51.78
74968;SHT30;63523;51.880;12.630;2024-03-06T13:48:32;9.84;51.03
74968;SHT30;63523;51.880;12.630;2024-03-06T13:50:57;9.88;52.70
74968;SHT30;63523;51.880;12.630;2024-03-06T13:53:22;9.97;51.49
74968;SHT30;63523;51.880;12.630;2024-03-06T13:55:47;10.01;52.58
74968;SHT30;63523;51.880;12.630;2024-03-06T13:58:13;10.11;53.43
74968;SHT30;63523;51.880;12.630;2024-03-06T14:00:38;10.16;52.10
74968;SHT30;63523;51.880;12.630;2024-03-06T14:03:03;10.21;51.64
74968;SHT30;63523;51.880;12.630;2024-03-06T14:05:29;10.26;52.79
74968;SHT30;63523;51.880;12.630;2024-03-06T14:07:54;10.32;51.42
74968;SHT30;63523;51.880;12.630;2024-03-06T14:10:20;10.31;51.71
74968;SHT30;63523;51.880;12.630;2024-03-06T14:12:47;10.31;51.33
74968;SHT30;63523;51.880;12.630;2024-03-06T14:15:12;10.24;52.38
74968;SHT30;63523;51.880;12.630;2024-03-06T14:17:38;10.29;52.61
74968;SHT30;63523;51.880;12.630;2024-03-06T14:20:03;10.24;53.07
74968;SHT30;63523;51.880;12.630;2024-03-06T14:22:29;10.16;52.53
74968;SHT30;63523;51.880;12.630;2024-03-06T14:24:54;10.05;52.67
74968;SHT30;63523;51.880;12.630;2024-03-06T14:27:20;9.84;53.13
74968;SHT30;63523;51.880;12.630;2024-03-06T14:29:45;9.61;54.01
74968;SHT30;63523;51.880;12.630;2024-03-06T14:32:11;9.46;52.74
74968;SHT30;63523;51.880;12.630;2024-03-06T14:34:36;9.42;53.14
74968;SHT30;63523;51.880;12.630;2024-03-06T14:37:01;9.38;54.04
74968;SHT30;63523;51.880;12.630;2024-03-06T14:39:27;9.43;53.63
74968;SHT30;63523;51.880;12.630;2024-03-06T14:41:52;9.47;54.65
74968;SHT30;63523;51.880;12.630;2024-03-06T14:44:18;9.60;53.59
74968;SHT30;63523;51.880;12.630;2024-03-06T14:46:43;9.71;54.21
74968;SHT30;63523;51.880;12.630;2024-03-06T14:49:09;9.70;54.79
74968;SHT30;63523;51.880;12.630;2024-03-06T14:51:34;9.80;53.86
74968;SHT30;63523;51.880;12.630;2024-03-06T14:54:00;9.74;54.28
74968;SHT30;63523;51.880;12.630;2024-03-06T14:56:25;9.67;55.72
74968;SHT30;63523;51.880;12.630;2024-03-06T14:58:50;9.50;56.23
74968;SHT30;63523;51.880;12.630;2024-03-06T15:01:16;9.44;55.66
74968;SHT30;63523;51.880;12.630;2024-03-06T15:03:42;9.44;57.00
74968;SHT30;63523;51.880;12.630;2024-03-06T15:06:07;9.43;57.52
74968;SHT30;63523;51.880;12.630;2024-03-06T15:08:33;9.44;56.98
74968;SHT30;63523;51.880;12.630;2024-03-06T15:11:00;9.38;55.38
74968;SHT30;63523;51.880;12.630;2024-03-06T15:13:25;9.26;55.41
74968;SHT30;63523;51.880;12.630;2024-03-06T15:15:50;9.31;55.62
74968;SHT30;63523;51.880;12.630;2024-03-06T15:18:16;9.28;56.30
74968;SHT30;63523;51.880;12.630;2024-03-06T15:20:42;9.22;57.56
74968;SHT30;63523;51.880;12.630;2024-03-06T15:23:08;9.22;55.91
74968;SHT30;63523;51.880;12.630;2024-03-06T15:25:33;9.16;57.70
74968;SHT30;63523;51.880;12.630;2024-03-06T15:27:58;9.12;57.19
74968;SHT30;63523;51.880;12.630;2024-03-06T15:30:24;9.12;58.28